createdAt,value
2023-05-16T00:01:58.096Z,1.60
2023-05-16T00:04:26.488Z,1.13
2023-05-16T00:06:53.303Z,1.08
2023-05-16T00:09:20.122Z,0.70
2023-05-16T00:11:48.301Z,0.68
2023-05-16T00:14:15.295Z,1.25
2023-05-16T00:16:42.048Z,0.93
2023-05-16T00:19:10.551Z,0.77
2023-05-16T00:21:37.292Z,1.00
2023-05-16T00:24:05.804Z,0.75
2023-05-16T00:26:33.659Z,1.02
2023-05-16T00:29:00.323Z,0.82
2023-05-16T00:31:26.974Z,1.15
2023-05-16T00:33:54.799Z,1.00
2023-05-16T00:36:23.835Z,1.40
2023-05-16T00:38:50.796Z,1.08
2023-05-16T00:41:18.188Z,0.98
2023-05-16T00:43:45.088Z,0.93
2023-05-16T00:46:11.764Z,0.80
2023-05-16T00:48:38.355Z,0.70
2023-05-16T00:51:09.297Z,1.15
2023-05-16T00:53:37.155Z,1.00
2023-05-16T00:56:05.637Z,1.38
2023-05-16T00:58:33.996Z,1.38
2023-05-16T01:01:03.698Z,1.48
2023-05-16T01:03:31.672Z,1.35
2023-05-16T01:05:58.643Z,1.00
2023-05-16T01:08:25.272Z,1.20
2023-05-16T01:13:38.949Z,2.03
2023-05-16T01:16:13.543Z,2.83
2023-05-16T01:21:25.308Z,1.58
2023-05-16T01:26:37.032Z,1.30
2023-05-16T01:29:04.105Z,2.58
2023-05-16T01:31:30.906Z,0.90
2023-05-16T01:33:57.501Z,1.42
2023-05-16T01:36:43.022Z,1.90
2023-05-16T01:42:14.290Z,1.73
2023-05-16T01:44:46.792Z,1.20
2023-05-16T01:47:14.665Z,1.58
2023-05-16T01:49:50.799Z,1.27
2023-05-16T01:52:24.942Z,1.42
2023-05-16T01:54:54.281Z,2.03
2023-05-16T01:57:24.451Z,1.95
2023-05-16T01:59:51.062Z,1.48
2023-05-16T02:02:19.726Z,1.35
2023-05-16T02:04:46.831Z,1.25
2023-05-16T02:07:15.078Z,1.85
2023-05-16T02:09:41.657Z,1.05
2023-05-16T02:12:08.431Z,1.27
2023-05-16T02:14:34.964Z,1.40
2023-05-16T02:17:01.674Z,1.00
2023-05-16T02:19:28.402Z,1.80
2023-05-16T02:21:54.960Z,1.35
2023-05-16T02:24:21.667Z,0.98
2023-05-16T02:26:48.235Z,1.45
2023-05-16T02:29:16.310Z,1.38
2023-05-16T02:31:43.003Z,1.33
2023-05-16T02:34:09.593Z,1.55
2023-05-16T02:36:36.323Z,1.63
2023-05-16T02:39:04.211Z,1.48
2023-05-16T02:41:31.784Z,1.20
2023-05-16T02:43:58.633Z,1.70
2023-05-16T02:46:28.046Z,1.52
2023-05-16T02:48:54.902Z,1.25
2023-05-16T02:51:23.478Z,1.55
2023-05-16T02:53:50.562Z,1.17
2023-05-16T02:56:17.239Z,1.30
2023-05-16T02:58:46.143Z,1.70
2023-05-16T03:01:12.766Z,1.50
2023-05-16T03:03:39.560Z,1.65
2023-05-16T03:06:06.486Z,1.30
2023-05-16T03:08:33.986Z,0.93
2023-05-16T03:11:00.722Z,1.38
2023-05-16T03:13:28.342Z,0.77
2023-05-16T03:15:54.902Z,1.10
2023-05-16T03:18:21.877Z,1.38
2023-05-16T03:20:48.415Z,1.52
2023-05-16T03:23:14.970Z,1.65
2023-05-16T03:25:43.229Z,1.35
2023-05-16T03:28:10.026Z,0.90
2023-05-16T03:30:36.541Z,1.92
2023-05-16T03:33:04.321Z,1.73
2023-05-16T03:35:32.231Z,1.40
2023-05-16T03:37:58.959Z,1.67
2023-05-16T03:40:25.778Z,1.27
2023-05-16T03:42:52.366Z,1.45
2023-05-16T03:45:19.069Z,1.52
2023-05-16T03:47:45.884Z,1.15
2023-05-16T03:50:12.537Z,1.45
2023-05-16T03:52:39.142Z,1.73
2023-05-16T03:55:06.219Z,1.55
2023-05-16T03:57:34.089Z,1.30
2023-05-16T04:00:00.672Z,1.13
2023-05-16T04:02:27.304Z,0.90
2023-05-16T04:04:54.073Z,1.23
2023-05-16T04:07:22.451Z,1.73
2023-05-16T04:09:52.019Z,1.02
2023-05-16T04:12:18.575Z,1.67
2023-05-16T04:14:45.102Z,2.05
2023-05-16T04:17:12.913Z,1.73
2023-05-16T04:19:39.729Z,1.38
2023-05-16T04:22:06.462Z,1.52
2023-05-16T04:24:33.287Z,1.70
2023-05-16T04:26:59.831Z,1.58
2023-05-16T04:29:26.614Z,1.13
2023-05-16T04:31:53.536Z,1.10
2023-05-16T04:34:20.213Z,1.55
2023-05-16T04:36:46.956Z,1.63
2023-05-16T04:39:13.609Z,1.88
2023-05-16T04:41:40.166Z,1.40
2023-05-16T04:44:06.986Z,1.63
2023-05-16T04:46:33.580Z,1.25
2023-05-16T04:49:00.194Z,1.50
2023-05-16T04:51:26.789Z,2.05
2023-05-16T04:53:53.447Z,1.50
2023-05-16T04:56:20.525Z,1.42
2023-05-16T04:58:47.126Z,1.75
2023-05-16T05:01:13.706Z,3.38
2023-05-16T05:03:40.300Z,1.25
2023-05-16T05:06:06.997Z,1.63
2023-05-16T05:08:33.546Z,1.73
2023-05-16T05:11:00.077Z,2.03
2023-05-16T05:13:26.770Z,1.85
2023-05-16T05:15:53.552Z,1.35
2023-05-16T05:18:20.170Z,2.10
2023-05-16T05:20:46.858Z,1.88
2023-05-16T05:23:13.653Z,2.20
2023-05-16T05:25:40.889Z,2.00
2023-05-16T05:28:07.457Z,1.63
2023-05-16T05:30:34.009Z,1.30
2023-05-16T05:33:00.611Z,1.58
2023-05-16T05:35:27.340Z,2.20
2023-05-16T05:37:54.040Z,2.45
2023-05-16T05:40:20.657Z,2.17
2023-05-16T05:42:47.493Z,1.58
2023-05-16T05:45:16.060Z,1.50
2023-05-16T05:47:43.433Z,1.45
2023-05-16T05:50:11.623Z,1.90
2023-05-16T05:52:38.560Z,1.45
2023-05-16T05:55:05.774Z,1.48
2023-05-16T05:57:32.391Z,1.70
2023-05-16T05:59:59.012Z,0.88
2023-05-16T06:02:27.264Z,1.77
2023-05-16T06:04:53.887Z,1.38
2023-05-16T06:07:20.471Z,2.50
2023-05-16T06:09:47.195Z,1.10
2023-05-16T06:12:13.746Z,1.63
2023-05-16T06:14:40.279Z,0.93
2023-05-16T06:17:06.899Z,1.63
2023-05-16T06:19:33.572Z,1.52
2023-05-16T06:22:00.140Z,0.88
2023-05-16T06:24:26.818Z,1.73
2023-05-16T06:26:53.439Z,2.20
2023-05-16T06:29:20.009Z,1.85
2023-05-16T06:31:47.485Z,1.98
2023-05-16T06:34:14.048Z,1.55
2023-05-16T06:36:40.818Z,1.30
2023-05-16T06:39:07.546Z,1.60
2023-05-16T06:41:34.083Z,1.25
2023-05-16T06:44:00.767Z,1.10
2023-05-16T06:46:27.469Z,1.10
2023-05-16T06:48:54.171Z,1.42
2023-05-16T06:51:20.966Z,1.40
2023-05-16T06:53:47.514Z,1.05
2023-05-16T06:56:14.102Z,1.35
2023-05-16T06:58:40.913Z,0.95
2023-05-16T07:01:07.623Z,2.00
2023-05-16T07:03:34.721Z,0.88
2023-05-16T07:06:01.447Z,1.10
2023-05-16T07:08:28.051Z,1.25
2023-05-16T07:10:54.637Z,1.35
2023-05-16T07:13:21.250Z,1.25
2023-05-16T07:15:47.816Z,0.93
2023-05-16T07:18:14.458Z,1.40
2023-05-16T07:20:41.036Z,0.90
2023-05-16T07:23:07.563Z,1.02
2023-05-16T07:25:34.478Z,1.23
2023-05-16T07:28:01.189Z,0.63
2023-05-16T07:30:28.250Z,1.08
2023-05-16T07:32:54.847Z,1.08
2023-05-16T07:35:21.463Z,1.20
2023-05-16T07:37:48.075Z,1.05
2023-05-16T07:40:14.896Z,0.98
2023-05-16T07:42:41.554Z,0.95
2023-05-16T07:45:08.668Z,0.80
2023-05-16T07:47:36.075Z,0.73
2023-05-16T07:50:03.090Z,0.70
2023-05-16T07:52:29.732Z,1.63
2023-05-16T07:54:56.659Z,0.90
2023-05-16T07:57:25.045Z,1.85
2023-05-16T07:59:52.493Z,0.82
2023-05-16T08:02:19.663Z,0.98
2023-05-16T08:04:46.963Z,1.33
2023-05-16T08:07:13.700Z,1.70
2023-05-16T08:09:40.397Z,1.67
2023-05-16T08:12:07.499Z,1.35
2023-05-16T08:14:34.083Z,1.15
2023-05-16T08:17:00.920Z,1.05
2023-05-16T08:19:28.190Z,1.02
2023-05-16T08:21:55.028Z,1.23
2023-05-16T08:24:21.930Z,0.98
2023-05-16T08:26:48.655Z,0.93
2023-05-16T08:29:15.338Z,1.00
2023-05-16T08:31:42.131Z,0.95
2023-05-16T08:34:10.429Z,1.42
2023-05-16T08:36:37.883Z,0.82
2023-05-16T08:39:05.034Z,0.90
2023-05-16T08:41:31.899Z,1.55
2023-05-16T08:43:58.759Z,1.45
2023-05-16T08:46:26.653Z,0.80
2023-05-16T08:48:54.245Z,1.17
2023-05-16T08:51:21.599Z,1.30
2023-05-16T08:53:54.621Z,1.00
2023-05-16T08:56:22.428Z,1.13
2023-05-16T08:58:51.009Z,1.48
2023-05-16T09:01:18.995Z,1.02
2023-05-16T09:03:48.144Z,1.17
2023-05-16T09:06:14.757Z,1.10
2023-05-16T09:08:41.946Z,1.20
2023-05-16T09:11:09.581Z,1.02
2023-05-16T09:13:38.936Z,1.02
2023-05-16T09:16:10.826Z,0.80
2023-05-16T09:18:37.955Z,1.08
2023-05-16T09:21:07.568Z,1.33
2023-05-16T09:23:37.060Z,0.90
2023-05-16T09:26:08.233Z,1.67
2023-05-16T09:28:39.787Z,1.17
2023-05-16T09:33:58.766Z,2.42
2023-05-16T09:36:26.307Z,2.50
2023-05-16T09:38:53.605Z,2.60
2023-05-16T09:41:22.650Z,2.22
2023-05-16T09:43:49.358Z,2.95
2023-05-16T09:46:16.699Z,3.38
2023-05-16T09:48:48.139Z,2.83
2023-05-16T09:51:15.469Z,2.00
2023-05-16T09:53:42.274Z,2.83
2023-05-16T09:58:46.070Z,1.70
2023-05-16T10:01:12.824Z,1.17
2023-05-16T10:03:41.528Z,1.42
2023-05-16T10:06:09.184Z,1.30
2023-05-16T10:08:37.539Z,1.40
2023-05-16T10:11:05.990Z,1.98
2023-05-16T10:13:35.283Z,1.80
2023-05-16T10:16:08.091Z,1.83
2023-05-16T10:18:36.212Z,1.40
2023-05-16T10:21:08.319Z,1.92
2023-05-16T10:23:38.318Z,2.03
2023-05-16T10:26:06.234Z,1.98
2023-05-16T10:28:33.773Z,1.85
2023-05-16T10:31:01.838Z,2.05
2023-05-16T10:33:28.957Z,1.50
2023-05-16T10:35:56.059Z,1.83
2023-05-16T10:38:24.505Z,2.13
2023-05-16T10:40:51.630Z,1.83
2023-05-16T10:43:27.414Z,2.20
2023-05-16T10:45:56.529Z,2.03
2023-05-16T10:48:32.444Z,1.90
2023-05-16T10:50:59.321Z,2.25
2023-05-16T10:58:43.005Z,2.00
2023-05-16T11:09:23.602Z,2.58
2023-05-16T11:22:28.391Z,2.95
2023-05-16T11:27:43.580Z,2.90
2023-05-16T11:32:48.408Z,3.17
2023-05-16T11:35:17.109Z,3.13
2023-05-16T11:37:45.434Z,2.97
2023-05-16T11:40:13.976Z,3.17
2023-05-16T11:42:44.848Z,4.47
2023-05-16T11:45:14.674Z,2.80
2023-05-16T11:47:43.131Z,3.00
2023-05-16T11:50:13.941Z,3.03
2023-05-16T11:52:44.126Z,2.95
2023-05-16T11:55:11.419Z,3.30
2023-05-16T11:57:39.565Z,2.95
2023-05-16T12:00:15.084Z,2.47
2023-05-16T12:02:41.789Z,3.08
2023-05-16T12:05:10.104Z,3.65
2023-05-16T12:07:42.448Z,3.30
2023-05-16T12:10:10.390Z,2.92
2023-05-16T12:12:38.540Z,4.00
2023-05-16T12:15:07.222Z,3.00
2023-05-16T12:17:38.685Z,3.47
2023-05-16T12:20:06.811Z,3.33
2023-05-16T12:22:34.588Z,3.30
2023-05-16T12:25:23.171Z,2.78
2023-05-16T12:27:50.268Z,3.47
2023-05-16T12:30:18.816Z,3.15
2023-05-16T12:32:45.757Z,3.38
2023-05-16T12:35:13.372Z,2.58
2023-05-16T12:37:40.064Z,3.67
2023-05-16T12:40:10.682Z,3.30
2023-05-16T12:42:37.336Z,3.50
2023-05-16T12:45:05.334Z,3.03
2023-05-16T12:47:37.734Z,3.30
2023-05-16T12:50:12.188Z,3.50
2023-05-16T12:52:49.480Z,3.22
2023-05-16T12:55:17.878Z,3.25
2023-05-16T12:57:46.291Z,2.90
2023-05-16T13:00:14.909Z,3.90
2023-05-16T13:02:42.374Z,2.78
2023-05-16T13:05:10.244Z,3.17
2023-05-16T13:07:37.555Z,2.47
2023-05-16T13:10:04.509Z,3.80
2023-05-16T13:12:32.966Z,3.63
2023-05-16T13:14:59.725Z,3.05
2023-05-16T13:17:26.385Z,2.38
2023-05-16T13:19:52.959Z,3.00
2023-05-16T13:22:19.596Z,2.92
2023-05-16T13:24:46.181Z,3.45
2023-05-16T13:27:18.465Z,2.83
2023-05-16T13:29:45.159Z,2.78
2023-05-16T13:32:11.797Z,2.70
2023-05-16T13:34:38.539Z,2.70
2023-05-16T13:37:06.507Z,4.07
2023-05-16T13:39:33.268Z,2.85
2023-05-16T13:42:00.231Z,3.03
2023-05-16T13:44:27.146Z,2.85
2023-05-16T13:46:53.840Z,2.75
2023-05-16T13:49:20.869Z,2.35
2023-05-16T13:51:48.057Z,3.30
2023-05-16T13:54:14.701Z,2.67
2023-05-16T13:56:41.283Z,3.00
2023-05-16T13:59:15.252Z,2.40
2023-05-16T14:01:45.121Z,1.90
2023-05-16T14:04:12.478Z,2.90
2023-05-16T14:06:39.111Z,2.88
2023-05-16T14:09:06.342Z,2.75
2023-05-16T14:11:32.969Z,2.53
2023-05-16T14:13:59.633Z,2.50
2023-05-16T14:16:31.185Z,2.97
2023-05-16T14:18:57.962Z,3.33
2023-05-16T14:21:24.618Z,2.30
2023-05-16T14:23:51.345Z,3.38
2023-05-16T14:26:22.485Z,2.22
2023-05-16T14:28:49.250Z,2.45
2023-05-16T14:31:16.167Z,3.30
2023-05-16T14:33:43.966Z,2.25
2023-05-16T14:36:10.769Z,1.65
2023-05-16T14:38:37.350Z,2.83
2023-05-16T14:41:03.956Z,2.55
2023-05-16T14:43:31.083Z,2.38
2023-05-16T14:45:57.728Z,2.55
2023-05-16T14:48:24.434Z,2.42
2023-05-16T14:50:52.055Z,2.30
2023-05-16T14:53:19.130Z,1.65
2023-05-16T14:55:45.791Z,2.13
2023-05-16T14:58:13.196Z,2.35
2023-05-16T15:00:39.790Z,3.00
2023-05-16T15:03:06.793Z,3.13
2023-05-16T15:05:34.076Z,2.67
2023-05-16T15:08:00.674Z,2.95
2023-05-16T15:10:27.657Z,2.50
2023-05-16T15:12:54.401Z,1.90
2023-05-16T15:15:21.013Z,2.22
2023-05-16T15:17:47.710Z,1.92
2023-05-16T15:20:15.291Z,2.55
2023-05-16T15:22:42.215Z,3.17
2023-05-16T15:25:09.646Z,2.13
2023-05-16T15:27:36.699Z,1.98
2023-05-16T15:30:03.797Z,2.22
2023-05-16T15:32:30.871Z,2.20
2023-05-16T15:34:57.595Z,2.33
2023-05-16T15:37:24.247Z,2.28
2023-05-16T15:39:51.230Z,2.55
2023-05-16T15:42:19.942Z,2.50
2023-05-16T15:44:46.740Z,2.78
2023-05-16T15:47:13.564Z,2.65
2023-05-16T15:49:40.345Z,3.00
2023-05-16T15:52:07.659Z,2.17
2023-05-16T15:54:34.622Z,2.53
2023-05-16T15:57:01.305Z,2.30
2023-05-16T15:59:28.093Z,2.08
2023-05-16T16:01:54.729Z,2.13
2023-05-16T16:04:23.619Z,2.65
2023-05-16T16:06:51.794Z,3.38
2023-05-16T16:09:18.418Z,2.38
2023-05-16T16:11:45.001Z,2.22
2023-05-16T16:14:11.626Z,2.45
2023-05-16T16:16:42.515Z,2.70
2023-05-16T16:19:09.143Z,2.40
2023-05-16T16:21:35.988Z,1.55
2023-05-16T16:24:02.778Z,2.55
2023-05-16T16:26:29.584Z,2.85
2023-05-16T16:28:56.342Z,2.38
2023-05-16T16:31:22.998Z,1.85
2023-05-16T16:33:49.920Z,2.30
2023-05-16T16:36:17.032Z,2.13
2023-05-16T16:38:43.697Z,2.25
2023-05-16T16:41:10.633Z,2.58
2023-05-16T16:43:40.123Z,2.50
2023-05-16T16:46:07.690Z,3.10
2023-05-16T16:48:35.088Z,2.38
2023-05-16T16:51:02.407Z,2.08
2023-05-16T16:53:29.327Z,2.65
2023-05-16T16:55:56.138Z,2.67
2023-05-16T16:58:22.796Z,2.40
2023-05-16T17:00:49.524Z,2.72
2023-05-16T17:03:18.566Z,3.60
2023-05-16T17:05:45.160Z,2.35
2023-05-16T17:08:14.984Z,2.03
2023-05-16T17:10:41.761Z,2.15
2023-05-16T17:13:10.516Z,2.35
2023-05-16T17:15:38.094Z,2.33
2023-05-16T17:18:08.821Z,2.22
2023-05-16T17:20:35.992Z,2.90
2023-05-16T17:23:04.209Z,2.58
2023-05-16T17:25:31.151Z,2.08
2023-05-16T17:27:58.148Z,2.63
2023-05-16T17:30:24.901Z,2.28
2023-05-16T17:32:51.809Z,2.20
2023-05-16T17:35:18.586Z,2.97
2023-05-16T17:37:47.500Z,2.42
2023-05-16T17:40:18.931Z,3.33
2023-05-16T17:42:45.868Z,2.03
2023-05-16T17:45:14.996Z,2.25
2023-05-16T17:47:42.175Z,2.65
2023-05-16T17:50:10.398Z,2.72
2023-05-16T17:52:39.609Z,2.25
2023-05-16T17:55:09.002Z,2.33
2023-05-16T17:57:35.869Z,2.33
2023-05-16T18:00:05.511Z,2.08
2023-05-16T18:04:59.607Z,2.35
2023-05-16T18:07:27.114Z,2.45
2023-05-16T18:09:54.266Z,2.60
2023-05-16T18:12:21.219Z,2.65
2023-05-16T18:14:50.946Z,3.35
2023-05-16T18:19:44.278Z,2.85
2023-05-16T18:22:12.512Z,2.08
2023-05-16T18:24:39.994Z,2.35
2023-05-16T18:27:06.838Z,3.08
2023-05-16T18:29:33.506Z,2.88
2023-05-16T18:32:00.145Z,4.38
2023-05-16T18:34:26.848Z,3.83
2023-05-16T18:36:53.469Z,3.78
2023-05-16T18:39:20.638Z,3.28
2023-05-16T18:41:48.546Z,2.92
2023-05-16T18:44:17.396Z,3.03
2023-05-16T18:46:46.440Z,13.70
2023-05-16T18:49:13.908Z,4.40
2023-05-16T18:51:40.740Z,2.72
2023-05-16T18:54:07.616Z,2.38
2023-05-16T18:56:34.404Z,3.05
2023-05-16T18:59:01.088Z,2.47
2023-05-16T19:01:28.161Z,3.47
2023-05-16T19:03:54.940Z,2.15
2023-05-16T19:06:21.740Z,2.22
2023-05-16T19:08:48.631Z,2.88
2023-05-16T19:11:17.599Z,2.85
2023-05-16T19:13:45.492Z,3.30
2023-05-16T19:16:12.175Z,3.25
2023-05-16T19:18:39.180Z,3.15
2023-05-16T19:21:07.891Z,3.00
2023-05-16T19:23:34.544Z,2.38
2023-05-16T19:26:01.385Z,2.00
2023-05-16T19:28:28.009Z,2.55
2023-05-16T19:30:54.631Z,2.63
2023-05-16T19:33:21.785Z,2.40
2023-05-16T19:35:49.018Z,2.60
2023-05-16T19:38:15.692Z,2.25
2023-05-16T19:40:42.467Z,2.25
2023-05-16T19:43:09.094Z,2.97
2023-05-16T19:45:36.331Z,2.30
2023-05-16T19:48:03.578Z,2.08
2023-05-16T19:50:30.302Z,1.63
2023-05-16T19:52:56.890Z,3.17
2023-05-16T19:55:23.600Z,1.80
2023-05-16T19:57:52.311Z,2.28
2023-05-16T20:00:19.270Z,1.95
2023-05-16T20:02:45.967Z,1.92
2023-05-16T20:05:12.966Z,2.42
2023-05-16T20:07:40.504Z,2.42
2023-05-16T20:10:09.218Z,1.90
2023-05-16T20:12:36.010Z,1.95
2023-05-16T20:15:04.830Z,2.70
2023-05-16T20:17:31.476Z,1.88
2023-05-16T20:19:58.325Z,1.90
2023-05-16T20:22:25.187Z,2.20
2023-05-16T20:24:52.206Z,1.80
2023-05-16T20:27:18.779Z,1.92
2023-05-16T20:29:45.568Z,1.85
2023-05-16T20:32:12.154Z,2.55
2023-05-16T20:34:41.542Z,1.65
2023-05-16T20:37:08.286Z,1.85
2023-05-16T20:39:35.082Z,1.98
2023-05-16T20:42:01.830Z,1.25
2023-05-16T20:44:29.531Z,1.75
2023-05-16T20:46:56.284Z,1.67
2023-05-16T20:49:22.896Z,1.42
2023-05-16T20:51:49.452Z,1.35
2023-05-16T20:54:16.105Z,1.35
2023-05-16T20:56:42.733Z,1.60
2023-05-16T20:59:09.657Z,1.85
2023-05-16T21:01:36.336Z,1.17
2023-05-16T21:04:02.981Z,1.65
2023-05-16T21:06:29.641Z,1.73
2023-05-16T21:08:56.233Z,1.65
2023-05-16T21:11:22.958Z,1.42
2023-05-16T21:13:49.579Z,1.58
2023-05-16T21:16:16.213Z,1.65
2023-05-16T21:18:43.022Z,1.77
2023-05-16T21:21:09.939Z,1.83
2023-05-16T21:23:36.579Z,1.88
2023-05-16T21:26:03.432Z,1.90
2023-05-16T21:28:31.288Z,1.42
2023-05-16T21:31:01.354Z,1.40
2023-05-16T21:33:28.023Z,1.92
2023-05-16T21:35:55.280Z,1.40
2023-05-16T21:38:22.011Z,1.95
2023-05-16T21:40:48.722Z,1.90
2023-05-16T21:43:15.320Z,1.83
2023-05-16T21:45:41.891Z,1.85
2023-05-16T21:48:08.811Z,2.30
2023-05-16T21:50:35.775Z,2.05
2023-05-16T21:53:02.550Z,1.60
2023-05-16T21:55:29.304Z,2.42
2023-05-16T21:57:55.975Z,1.83
2023-05-16T22:00:22.728Z,1.60
2023-05-16T22:02:49.739Z,1.60
2023-05-16T22:05:19.210Z,1.60
2023-05-16T22:07:46.598Z,1.88
2023-05-16T22:10:14.905Z,1.83
2023-05-16T22:12:41.557Z,1.70
2023-05-16T22:15:08.544Z,1.83
2023-05-16T22:17:35.197Z,2.63
2023-05-16T22:20:02.335Z,2.15
2023-05-16T22:22:28.991Z,1.88
2023-05-16T22:24:55.647Z,1.70
2023-05-16T22:27:22.197Z,1.98
2023-05-16T22:29:49.278Z,1.90
2023-05-16T22:32:15.857Z,2.15
2023-05-16T22:34:42.443Z,2.38
2023-05-16T22:37:09.761Z,3.05
2023-05-16T22:39:36.464Z,2.20
2023-05-16T22:42:03.694Z,2.47
2023-05-16T22:44:30.391Z,1.85
2023-05-16T22:46:57.064Z,2.13
2023-05-16T22:49:23.776Z,2.60
2023-05-16T22:51:50.477Z,2.83
2023-05-16T22:54:17.292Z,1.60
2023-05-16T22:56:43.838Z,1.50
2023-05-16T22:59:10.871Z,2.08
2023-05-16T23:01:37.508Z,2.08
2023-05-16T23:04:04.280Z,1.98
2023-05-16T23:06:30.955Z,1.98
2023-05-16T23:08:57.679Z,3.47
2023-05-16T23:11:24.242Z,2.05
2023-05-16T23:13:50.804Z,2.97
2023-05-16T23:16:17.390Z,1.90
2023-05-16T23:18:44.090Z,2.30
2023-05-16T23:21:10.730Z,2.47
2023-05-16T23:23:37.294Z,1.63
2023-05-16T23:26:03.850Z,1.98
2023-05-16T23:28:30.468Z,2.35
2023-05-16T23:30:57.025Z,2.42
2023-05-16T23:33:23.743Z,1.95
2023-05-16T23:35:50.394Z,1.60
2023-05-16T23:38:16.977Z,2.17
2023-05-16T23:40:43.569Z,2.28
2023-05-16T23:43:10.169Z,2.47
2023-05-16T23:45:36.713Z,2.22
2023-05-16T23:48:03.709Z,2.53
2023-05-16T23:50:30.453Z,2.60
2023-05-16T23:52:57.017Z,1.88
2023-05-16T23:55:23.613Z,2.10
2023-05-16T23:57:50.345Z,2.95
